createdAt,value
2023-03-02T00:02:32.598Z,4.80
2023-03-02T00:05:24.601Z,4.80
2023-03-02T00:08:17.522Z,4.70
2023-03-02T00:11:09.236Z,4.70
2023-03-02T00:14:00.899Z,4.80
2023-03-02T00:16:52.396Z,4.80
2023-03-02T00:19:45.026Z,4.80
2023-03-02T00:22:36.586Z,4.80
2023-03-02T00:25:28.956Z,4.80
2023-03-02T00:28:32.459Z,4.80
2023-03-02T00:31:24.940Z,4.80
2023-03-02T00:34:17.130Z,4.70
2023-03-02T00:37:09.270Z,4.80
2023-03-02T00:40:00.879Z,4.80
2023-03-02T00:42:52.342Z,4.80
2023-03-02T00:45:43.948Z,4.90
2023-03-02T00:48:35.240Z,4.90
2023-03-02T00:51:26.433Z,4.80
2023-03-02T00:54:17.577Z,4.80
2023-03-02T00:57:09.063Z,4.80
2023-03-02T01:00:00.879Z,4.80
2023-03-02T01:02:54.067Z,4.80
2023-03-02T01:05:47.252Z,4.80
2023-03-02T01:08:38.758Z,4.80
2023-03-02T01:11:31.826Z,4.80
2023-03-02T01:14:23.789Z,4.90
2023-03-02T01:17:16.212Z,4.90
2023-03-02T01:20:11.014Z,4.80
2023-03-02T01:23:02.272Z,4.80
2023-03-02T01:25:53.713Z,4.80
2023-03-02T01:28:45.300Z,4.80
2023-03-02T01:31:37.143Z,4.80
2023-03-02T01:34:28.955Z,4.80
2023-03-02T01:37:20.859Z,4.80
2023-03-02T01:40:16.156Z,4.80
2023-03-02T01:43:14.689Z,4.80
2023-03-02T01:46:09.845Z,4.80
2023-03-02T01:49:07.834Z,4.70
2023-03-02T01:52:14.127Z,4.70
2023-03-02T01:55:08.761Z,4.70
2023-03-02T01:58:01.981Z,4.70
2023-03-02T02:00:56.269Z,4.70
2023-03-02T02:03:51.297Z,4.60
2023-03-02T02:06:45.917Z,4.60
2023-03-02T02:09:40.535Z,4.60
2023-03-02T02:12:32.269Z,4.60
2023-03-02T02:15:24.199Z,4.60
2023-03-02T02:18:15.576Z,4.70
2023-03-02T02:21:17.104Z,4.80
2023-03-02T02:24:10.880Z,4.70
2023-03-02T02:27:02.531Z,4.70
2023-03-02T02:29:56.440Z,4.70
2023-03-02T02:32:50.011Z,4.70
2023-03-02T02:35:42.438Z,4.50
2023-03-02T02:38:35.941Z,4.50
2023-03-02T02:41:31.143Z,4.50
2023-03-02T02:44:22.613Z,4.40
2023-03-02T02:47:19.458Z,4.40
2023-03-02T02:50:18.651Z,4.40
2023-03-02T02:53:13.896Z,4.30
2023-03-02T02:56:07.932Z,4.30
2023-03-02T02:59:06.932Z,4.30
2023-03-02T03:01:59.278Z,4.20
2023-03-02T03:04:56.246Z,4.20
2023-03-02T03:07:47.649Z,4.20
2023-03-02T03:10:42.465Z,4.20
2023-03-02T03:13:36.323Z,4.30
2023-03-02T03:16:30.703Z,4.10
2023-03-02T03:19:25.100Z,4.10
2023-03-02T03:22:18.823Z,4.00
2023-03-02T03:25:14.574Z,3.90
2023-03-02T03:28:07.162Z,3.80
2023-03-02T03:31:08.524Z,3.80
2023-03-02T03:33:59.043Z,3.80
2023-03-02T03:52:49.072Z,3.60
2023-03-02T03:55:41.958Z,3.60
2023-03-02T03:58:33.924Z,3.60
2023-03-02T04:01:27.300Z,3.60
2023-03-02T04:04:21.147Z,3.60
2023-03-02T04:07:13.092Z,3.50
2023-03-02T04:10:08.913Z,3.50
2023-03-02T04:13:01.968Z,3.50
2023-03-02T04:15:53.931Z,3.50
2023-03-02T04:18:45.552Z,3.50
2023-03-02T04:21:36.961Z,3.50
2023-03-02T04:24:28.360Z,3.50
2023-03-02T04:27:21.885Z,3.50
2023-03-02T04:30:16.450Z,3.50
2023-03-02T04:33:08.843Z,3.50
2023-03-02T04:36:00.539Z,3.50
2023-03-02T04:38:53.242Z,3.50
2023-03-02T04:41:45.163Z,3.50
2023-03-02T04:44:36.857Z,3.50
2023-03-02T04:47:28.268Z,3.50
2023-03-02T04:50:19.785Z,3.50
2023-03-02T04:53:12.234Z,3.50
2023-03-02T04:56:05.813Z,3.70
2023-03-02T04:58:57.944Z,3.70
2023-03-02T05:01:50.054Z,3.70
2023-03-02T05:04:42.544Z,3.70
2023-03-02T05:07:33.955Z,3.60
2023-03-02T05:10:26.691Z,3.60
2023-03-02T05:13:20.418Z,3.50
2023-03-02T05:16:11.958Z,3.50
2023-03-02T05:19:04.418Z,3.50
2023-03-02T05:21:56.682Z,3.50
2023-03-02T05:24:48.291Z,3.50
2023-03-02T05:27:39.872Z,3.50
2023-03-02T05:30:32.764Z,3.50
2023-03-02T05:33:35.608Z,3.60
2023-03-02T05:36:20.751Z,3.70
2023-03-02T05:39:12.901Z,3.70
2023-03-02T05:42:06.061Z,3.80
2023-03-02T05:44:57.801Z,3.80
2023-03-02T05:47:49.566Z,3.80
2023-03-02T05:50:41.135Z,3.80
2023-03-02T05:56:12.824Z,3.80
2023-03-02T05:59:03.970Z,3.80
2023-03-02T06:01:57.526Z,3.80
2023-03-02T06:04:49.291Z,3.90
2023-03-02T06:07:41.308Z,3.80
2023-03-02T06:10:33.142Z,3.90
2023-03-02T06:13:24.786Z,4.00
2023-03-02T06:16:16.515Z,4.00
2023-03-02T06:19:09.029Z,4.00
2023-03-02T06:22:01.484Z,4.00
2023-03-02T06:24:54.252Z,4.10
2023-03-02T06:27:46.026Z,4.10
2023-03-02T06:30:38.154Z,4.10
2023-03-02T06:33:30.838Z,4.10
2023-03-02T06:36:22.690Z,4.10
2023-03-02T06:39:16.930Z,4.20
2023-03-02T06:42:08.528Z,4.10
2023-03-02T06:45:18.685Z,4.10
2023-03-02T06:48:10.842Z,4.10
2023-03-02T06:51:02.197Z,4.10
2023-03-02T06:53:53.953Z,4.10
2023-03-02T06:59:35.632Z,4.10
2023-03-02T07:02:27.159Z,4.10
2023-03-02T07:05:44.556Z,4.20
2023-03-02T07:08:13.462Z,4.30
2023-03-02T07:11:10.764Z,4.30
2023-03-02T07:14:03.885Z,4.30
2023-03-02T07:16:57.025Z,4.40
2023-03-02T07:19:48.785Z,4.40
2023-03-02T07:22:40.450Z,4.40
2023-03-02T07:25:32.917Z,4.40
2023-03-02T07:28:24.660Z,4.50
2023-03-02T07:31:16.325Z,4.60
2023-03-02T07:34:08.171Z,4.60
2023-03-02T07:36:59.506Z,4.60
2023-03-02T07:39:51.548Z,4.60
2023-03-02T07:42:43.213Z,4.70
2023-03-02T07:45:34.626Z,4.70
2023-03-02T07:48:26.348Z,4.80
2023-03-02T07:51:17.756Z,4.80
2023-03-02T07:54:12.257Z,4.90
2023-03-02T07:57:03.649Z,4.90
2023-03-02T07:59:55.623Z,4.90
2023-03-02T08:02:47.362Z,4.90
2023-03-02T08:05:39.297Z,5.00
2023-03-02T08:08:33.341Z,5.00
2023-03-02T08:11:25.344Z,5.00
2023-03-02T08:14:16.972Z,4.90
2023-03-02T08:17:09.423Z,5.00
2023-03-02T08:20:00.741Z,5.00
2023-03-02T08:22:53.380Z,5.20
2023-03-02T08:25:45.730Z,5.30
2023-03-02T08:28:37.863Z,5.30
2023-03-02T08:31:29.927Z,5.40
2023-03-02T08:34:41.206Z,5.40
2023-03-02T08:37:33.153Z,5.30
2023-03-02T08:40:28.004Z,5.30
2023-03-02T08:43:19.750Z,5.30
2023-03-02T08:46:12.576Z,5.40
2023-03-02T08:49:05.794Z,5.60
2023-03-02T08:51:57.467Z,5.60
2023-03-02T08:54:49.127Z,5.60
2023-03-02T08:57:44.144Z,5.70
2023-03-02T09:00:39.223Z,5.80
2023-03-02T09:03:32.711Z,5.90
2023-03-02T09:06:24.192Z,5.80
2023-03-02T09:09:18.042Z,5.90
2023-03-02T09:12:09.891Z,6.00
2023-03-02T09:15:01.704Z,6.00
2023-03-02T09:17:53.774Z,6.00
2023-03-02T09:20:49.372Z,6.20
2023-03-02T09:23:41.208Z,6.20
2023-03-02T09:26:38.294Z,6.30
2023-03-02T09:29:37.125Z,6.50
2023-03-02T09:32:29.155Z,6.60
2023-03-02T09:35:20.932Z,6.50
2023-03-02T09:38:14.921Z,6.60
2023-03-02T09:41:32.362Z,6.60
2023-03-02T09:44:45.142Z,6.60
2023-03-02T09:47:47.836Z,6.80
2023-03-02T09:50:41.590Z,6.80
2023-03-02T09:53:48.110Z,6.90
2023-03-02T09:56:42.829Z,6.90
2023-03-02T09:59:40.509Z,6.90
2023-03-02T10:02:33.873Z,6.90
2023-03-02T10:05:28.825Z,6.90
2023-03-02T10:08:26.930Z,7.00
2023-03-02T10:14:15.977Z,7.10
2023-03-02T10:17:20.827Z,7.20
2023-03-02T10:20:19.431Z,7.20
2023-03-02T10:23:20.495Z,7.40
2023-03-02T10:54:14.723Z,8.10
2023-03-02T10:57:08.824Z,7.20
2023-03-02T11:00:05.268Z,7.20
2023-03-02T11:03:01.155Z,7.40
2023-03-02T11:05:53.146Z,7.30
2023-03-02T11:08:46.518Z,7.30
2023-03-02T11:11:38.178Z,7.20
2023-03-02T11:14:29.739Z,7.30
2023-03-02T11:17:38.405Z,7.30
2023-03-02T11:20:43.387Z,7.30
2023-03-02T11:23:50.367Z,7.10
2023-03-02T11:26:47.631Z,7.30
2023-03-02T11:44:03.488Z,7.20
2023-03-02T11:46:59.417Z,7.10
2023-03-02T11:49:55.728Z,7.10
2023-03-02T11:52:52.194Z,7.30
2023-03-02T12:12:42.670Z,7.80
2023-03-02T12:15:43.635Z,8.00
2023-03-02T12:18:49.197Z,8.00
2023-03-02T12:21:44.274Z,8.00
2023-03-02T12:24:37.902Z,8.20
2023-03-02T12:27:31.631Z,8.10
2023-03-02T12:30:30.796Z,8.10
2023-03-02T12:33:23.615Z,8.20
2023-03-02T12:36:20.320Z,8.20
2023-03-02T12:39:18.762Z,8.20
2023-03-02T12:42:36.146Z,8.20
2023-03-02T12:45:45.629Z,8.30
2023-03-02T12:48:42.453Z,8.50
2023-03-02T12:51:39.194Z,8.50
2023-03-02T12:57:52.858Z,8.70
2023-03-02T13:00:49.806Z,8.80
2023-03-02T13:03:47.688Z,8.90
2023-03-02T13:06:42.330Z,8.80
2023-03-02T13:09:34.414Z,8.80
2023-03-02T13:12:31.037Z,9.00
2023-03-02T13:15:22.756Z,9.10
2023-03-02T13:18:15.481Z,9.10
2023-03-02T13:21:13.012Z,9.10
2023-03-02T13:24:05.135Z,9.20
2023-03-02T13:26:59.715Z,9.40
2023-03-02T13:29:52.983Z,9.50
2023-03-02T13:32:45.034Z,9.50
2023-03-02T13:35:38.650Z,9.50
2023-03-02T13:38:33.451Z,9.70
2023-03-02T13:41:26.300Z,9.60
2023-03-02T13:44:24.898Z,9.70
2023-03-02T13:47:24.762Z,9.80
2023-03-02T13:50:23.071Z,9.90
2023-03-02T13:53:15.128Z,10.10
2023-03-02T13:56:07.226Z,10.10
2023-03-02T13:58:59.342Z,10.20
2023-03-02T14:01:51.751Z,10.20
2023-03-02T14:04:43.442Z,10.20
2023-03-02T14:07:35.797Z,10.20
2023-03-02T14:10:30.645Z,10.30
2023-03-02T14:13:25.613Z,10.40
2023-03-02T14:16:18.241Z,10.40
2023-03-02T14:19:11.342Z,10.40
2023-03-02T14:22:03.112Z,10.50
2023-03-02T14:24:57.996Z,10.70
2023-03-02T14:27:49.781Z,10.60
2023-03-02T14:30:44.354Z,10.60
2023-03-02T14:33:36.791Z,10.50
2023-03-02T14:36:32.075Z,10.60
2023-03-02T14:42:06.450Z,11.90
2023-03-02T14:44:59.754Z,12.70
2023-03-02T14:47:51.396Z,13.20
2023-03-02T14:50:45.771Z,13.80
2023-03-02T14:53:37.911Z,14.10
2023-03-02T14:56:29.650Z,14.10
2023-03-02T14:59:20.863Z,14.30
2023-03-02T15:02:24.883Z,14.00
2023-03-02T15:05:07.470Z,12.50
2023-03-02T15:07:59.100Z,11.80
2023-03-02T15:10:51.838Z,11.50
2023-03-02T15:13:45.663Z,11.50
2023-03-02T15:16:36.840Z,11.30
2023-03-02T15:19:28.339Z,11.20
2023-03-02T15:22:21.850Z,11.20
2023-03-02T15:27:53.617Z,11.00
2023-03-02T15:30:45.541Z,10.90
2023-03-02T15:33:37.617Z,11.00
2023-03-02T15:36:29.378Z,10.90
2023-03-02T15:39:21.036Z,10.90
2023-03-02T15:42:14.065Z,10.90
2023-03-02T15:45:09.008Z,11.10
2023-03-02T15:48:00.588Z,12.00
2023-03-02T15:51:00.374Z,13.10
2023-03-02T15:53:52.008Z,13.30
2023-03-02T15:57:01.154Z,13.60
2023-03-02T15:59:52.344Z,13.50
2023-03-02T16:02:44.128Z,13.90
2023-03-02T16:05:35.660Z,13.80
2023-03-02T16:08:27.251Z,13.80
2023-03-02T16:11:20.204Z,13.70
2023-03-02T16:14:14.291Z,13.80
2023-03-02T16:17:06.181Z,13.90
2023-03-02T16:19:57.970Z,14.00
2023-03-02T16:22:49.694Z,13.50
2023-03-02T16:25:44.568Z,13.20
2023-03-02T16:28:36.419Z,12.90
2023-03-02T16:31:29.366Z,12.70
2023-03-02T16:34:20.829Z,12.30
2023-03-02T16:37:13.304Z,11.90
2023-03-02T16:40:05.083Z,11.50
2023-03-02T16:42:57.005Z,11.20
2023-03-02T16:45:50.115Z,11.00
2023-03-02T16:48:41.669Z,10.90
2023-03-02T16:51:33.422Z,10.80
2023-03-02T16:54:25.543Z,10.70
2023-03-02T16:57:17.220Z,10.50
2023-03-02T17:00:12.341Z,10.50
2023-03-02T17:03:03.945Z,10.40
2023-03-02T17:05:55.740Z,10.30
2023-03-02T17:08:47.353Z,10.30
2023-03-02T17:11:38.909Z,10.20
2023-03-02T17:14:30.631Z,10.10
2023-03-02T17:17:22.091Z,10.10
2023-03-02T17:20:15.721Z,10.00
2023-03-02T17:23:07.516Z,10.00
2023-03-02T17:25:59.013Z,9.90
2023-03-02T17:28:56.317Z,9.90
2023-03-02T17:31:47.937Z,9.80
2023-03-02T17:34:39.285Z,9.70
2023-03-02T17:37:33.763Z,9.70
2023-03-02T17:40:25.852Z,9.60
2023-03-02T17:43:17.655Z,9.60
2023-03-02T17:46:21.077Z,9.50
2023-03-02T17:49:13.371Z,9.40
2023-03-02T17:52:06.463Z,9.40
2023-03-02T17:54:57.475Z,9.30
2023-03-02T17:57:49.069Z,9.40
2023-03-02T18:00:41.407Z,9.30
2023-03-02T18:03:32.857Z,9.20
2023-03-02T18:06:25.863Z,9.10
2023-03-02T18:09:17.754Z,9.10
2023-03-02T18:12:10.649Z,9.00
2023-03-02T18:15:02.513Z,9.00
2023-03-02T18:17:53.888Z,8.90
2023-03-02T18:20:45.745Z,8.80
2023-03-02T18:23:37.558Z,8.80
2023-03-02T18:26:32.231Z,8.80
2023-03-02T18:29:24.381Z,8.80
2023-03-02T18:32:16.390Z,8.80
2023-03-02T18:35:09.276Z,8.70
2023-03-02T18:38:00.683Z,8.60
2023-03-02T18:40:52.319Z,8.60
2023-03-02T18:43:44.629Z,8.50
2023-03-02T18:46:36.904Z,8.50
2023-03-02T18:49:28.760Z,8.50
2023-03-02T18:52:20.099Z,8.50
2023-03-02T18:55:12.793Z,8.50
2023-03-02T18:58:05.024Z,8.50
2023-03-02T19:00:57.263Z,8.40
2023-03-02T19:03:49.271Z,8.40
2023-03-02T19:06:40.942Z,8.30
2023-03-02T19:09:32.501Z,8.30
2023-03-02T19:12:23.994Z,8.30
2023-03-02T19:15:15.738Z,8.30
2023-03-02T19:18:07.357Z,8.20
2023-03-02T19:21:01.432Z,8.20
2023-03-02T19:23:52.352Z,8.10
2023-03-02T19:26:43.942Z,8.10
2023-03-02T19:29:35.496Z,8.10
2023-03-02T19:32:27.100Z,8.10
2023-03-02T19:35:19.373Z,8.00
2023-03-02T19:38:11.583Z,8.00
2023-03-02T19:41:03.207Z,8.00
2023-03-02T19:43:54.506Z,8.00
2023-03-02T19:46:46.039Z,7.90
2023-03-02T19:49:37.806Z,7.90
2023-03-02T19:52:29.427Z,7.90
2023-03-02T19:55:21.959Z,7.90
2023-03-02T19:58:16.739Z,7.80
2023-03-02T20:01:10.678Z,7.80
2023-03-02T20:04:00.947Z,7.80
2023-03-02T20:06:52.228Z,7.80
2023-03-02T20:09:43.896Z,7.80
2023-03-02T20:12:37.759Z,7.80
2023-03-02T20:15:31.203Z,7.70
2023-03-02T20:18:22.655Z,7.70
2023-03-02T20:21:17.974Z,7.60
2023-03-02T20:24:10.208Z,7.60
2023-03-02T20:27:16.800Z,7.60
2023-03-02T20:30:12.480Z,7.50
2023-03-02T20:37:41.898Z,7.50
2023-03-02T20:40:34.884Z,7.50
2023-03-02T20:43:28.462Z,7.50
2023-03-02T20:46:23.956Z,7.50
2023-03-02T20:49:16.787Z,7.40
2023-03-02T20:52:09.551Z,7.30
2023-03-02T20:55:01.979Z,7.30
2023-03-02T20:58:07.975Z,7.20
2023-03-02T21:00:56.041Z,7.30
2023-03-02T21:04:07.136Z,7.20
2023-03-02T21:07:00.146Z,7.10
2023-03-02T21:09:52.151Z,7.10
2023-03-02T21:12:49.081Z,7.00
2023-03-02T21:15:41.399Z,7.00
2023-03-02T21:18:34.672Z,7.00
2023-03-02T21:21:40.741Z,6.90
2023-03-02T21:24:20.949Z,6.90
2023-03-02T21:27:12.729Z,6.90
2023-03-02T21:30:06.380Z,6.90
2023-03-02T21:33:00.392Z,6.90
2023-03-02T21:35:52.253Z,6.90
2023-03-02T21:38:44.670Z,6.90
2023-03-02T21:41:37.218Z,6.90
2023-03-02T21:44:28.845Z,6.90
2023-03-02T21:47:21.823Z,6.80
2023-03-02T21:53:03.544Z,6.80
2023-03-02T21:55:55.232Z,6.80
2023-03-02T21:58:47.438Z,6.80
2023-03-02T22:01:39.394Z,6.80
2023-03-02T22:04:39.023Z,6.80
2023-03-02T22:07:35.289Z,6.70
2023-03-02T22:10:30.694Z,6.70
2023-03-02T22:13:25.757Z,6.70
2023-03-02T22:19:13.047Z,6.50
2023-03-02T22:22:08.969Z,6.50
2023-03-02T22:25:00.240Z,6.40
2023-03-02T22:27:51.774Z,6.40
2023-03-02T22:30:43.167Z,6.40
2023-03-02T22:33:36.837Z,6.40
2023-03-02T22:36:28.431Z,6.30
2023-03-02T22:39:24.157Z,6.30
2023-03-02T22:42:18.553Z,6.20
2023-03-02T22:45:15.569Z,6.20
2023-03-02T22:48:14.835Z,6.20
2023-03-02T22:51:14.011Z,6.20
2023-03-02T22:54:08.989Z,6.10
2023-03-02T22:57:00.523Z,6.20
2023-03-02T23:00:05.836Z,6.20
2023-03-02T23:02:58.516Z,6.10
2023-03-02T23:05:51.952Z,6.10
2023-03-02T23:08:45.343Z,6.00
2023-03-02T23:28:07.025Z,5.80
2023-03-02T23:30:58.251Z,5.70
2023-03-02T23:33:50.140Z,5.60
2023-03-02T23:36:42.006Z,5.60
2023-03-02T23:39:33.631Z,5.60
2023-03-02T23:42:25.289Z,5.60
2023-03-02T23:45:16.968Z,5.60
2023-03-02T23:48:08.636Z,5.50
2023-03-02T23:50:59.992Z,5.50
2023-03-02T23:53:51.566Z,5.50
2023-03-02T23:56:43.180Z,5.50
2023-03-02T23:59:34.779Z,5.40
